Time;durP1;ratioP1;P1;durP2;ratioP2;P2;SDS_P1;SDS_P2;PMS_P1;PMS_P2;Temp;Humidity;BMP_temperature;BMP_pressure;BME280_temperature;BME280_humidity;BME280_pressure;Samples;Min_cycle;Max_cycle;Signal;HPM_P1;HPM_P2
2023/09/26 15:43:18;;;;;;;12.87;12.20;;;23.50;91.10;;;;;;5109201;27;20567;-68
2023/09/26 15:45:45;;;;;;;13.03;12.53;;;23.60;91.20;;;;;;5101100;28;20493;-67
2023/09/26 15:48:12;;;;;;;12.70;12.20;;;23.60;90.90;;;;;;5092860;28;20470;-68
2023/09/26 15:50:40;;;;;;;14.20;13.60;;;23.50;90.90;;;;;;5089279;28;20474;-68
2023/09/26 15:53:07;;;;;;;13.03;12.63;;;23.50;91.00;;;;;;5093593;28;20858;-67
2023/09/26 15:55:34;;;;;;;13.13;12.63;;;23.40;91.10;;;;;;5091681;28;20506;-68
2023/09/26 15:58:01;;;;;;;12.40;12.00;;;23.40;91.20;;;;;;5088753;28;20469;-65
2023/09/26 16:00:29;;;;;;;13.20;12.50;;;23.30;91.50;;;;;;5088781;28;20443;-67
2023/09/26 16:02:56;;;;;;;12.50;12.10;;;23.20;91.70;;;;;;5087164;28;20562;-68
2023/09/26 16:05:23;;;;;;;12.10;11.53;;;23.20;91.90;;;;;;5088520;28;20498;-67
2023/09/26 16:07:50;;;;;;;12.30;11.70;;;23.10;91.80;;;;;;5088409;28;20481;-67
2023/09/26 16:10:20;;;;;;;11.83;11.40;;;23.10;92.00;;;;;;5096549;28;20486;-67
2023/09/26 16:12:46;;;;;;;14.70;12.17;;;23.10;92.20;;;;;;5091018;28;20538;-68
2023/09/26 16:15:13;;;;;;;11.83;11.43;;;23.10;92.40;;;;;;5090394;28;20491;-67
2023/09/26 16:17:42;;;;;;;11.07;10.77;;;23.00;92.40;;;;;;5091040;28;20786;-67
2023/09/26 16:20:09;;;;;;;11.57;11.20;;;23.00;92.50;;;;;;5088516;28;20450;-68
2023/09/26 16:22:36;;;;;;;11.50;11.10;;;23.10;92.50;;;;;;5088244;28;20509;-66
2023/09/26 16:25:04;;;;;;;12.47;11.97;;;23.10;92.90;;;;;;5088781;28;20494;-68
2023/09/26 16:27:30;;;;;;;11.20;10.80;;;23.10;92.80;;;;;;5088114;28;20517;-69
2023/09/26 16:29:58;;;;;;;11.13;10.77;;;23.10;92.80;;;;;;5081703;28;20485;-68
2023/09/26 16:32:25;;;;;;;13.63;13.03;;;23.10;92.80;;;;;;5088061;28;20519;-68
2023/09/26 16:34:55;;;;;;;12.10;11.70;;;23.20;92.90;;;;;;5093895;28;20477;-69
2023/09/26 16:37:22;;;;;;;12.23;11.53;;;23.10;92.80;;;;;;5088464;28;20447;-69
2023/09/26 16:39:52;;;;;;;12.40;11.90;;;23.10;92.90;;;;;;5098241;28;21105;-70
2023/09/26 16:42:19;;;;;;;12.20;11.70;;;23.10;92.90;;;;;;5089693;28;20478;-69
2023/09/26 16:44:47;;;;;;;11.97;11.57;;;23.10;92.80;;;;;;5098409;28;20501;-69
2023/09/26 16:47:14;;;;;;;12.80;12.30;;;23.10;93.00;;;;;;5088805;28;20457;-67
2023/09/26 16:49:41;;;;;;;11.60;11.20;;;23.10;92.70;;;;;;5088075;28;20478;-67
2023/09/26 16:52:10;;;;;;;11.10;10.80;;;23.20;92.70;;;;;;5087594;28;20462;-71
2023/09/26 16:54:37;;;;;;;11.93;10.93;;;23.10;92.60;;;;;;5081225;28;20500;-71
2023/09/26 16:57:04;;;;;;;11.97;11.60;;;23.20;92.70;;;;;;5080991;28;20954;-72
2023/09/26 16:59:31;;;;;;;10.70;10.40;;;23.20;92.90;;;;;;5074141;28;20455;-71
2023/09/26 17:01:58;;;;;;;10.87;10.57;;;23.20;93.10;;;;;;5075002;28;20502;-71
2023/09/26 17:04:25;;;;;;;11.30;10.80;;;23.20;93.00;;;;;;5074991;28;20546;-72
2023/09/26 17:06:56;;;;;;;11.60;11.20;;;23.20;93.00;;;;;;5074357;28;20853;-68
2023/09/26 17:09:24;;;;;;;10.60;10.20;;;23.30;92.90;;;;;;5074019;28;20435;-68
2023/09/26 17:11:51;;;;;;;10.40;10.00;;;23.30;92.50;;;;;;5077479;28;20479;-68
2023/09/26 17:14:23;;;;;;;10.83;10.53;;;23.30;92.40;;;;;;5081225;28;20504;-67
2023/09/26 17:16:50;;;;;;;10.37;9.87;;;23.20;92.70;;;;;;5074683;28;20825;-70
2023/09/26 17:19:17;;;;;;;9.93;9.70;;;23.20;93.00;;;;;;5073854;28;20467;-70
2023/09/26 17:21:44;;;;;;;10.10;9.70;;;23.20;92.90;;;;;;5081688;28;20502;-71
2023/09/26 17:24:11;;;;;;;11.93;11.53;;;23.20;92.90;;;;;;5074694;28;20467;-69
2023/09/26 17:26:40;;;;;;;10.53;10.23;;;23.20;93.20;;;;;;5073723;28;20958;-68
2023/09/26 17:29:07;;;;;;;11.33;10.93;;;23.20;92.90;;;;;;5085507;28;20482;-71
2023/09/26 17:31:34;;;;;;;10.90;10.40;;;23.20;93.10;;;;;;5088898;28;20810;-72
2023/09/26 17:34:01;;;;;;;10.23;9.93;;;23.20;92.90;;;;;;5074223;28;20502;-70
2023/09/26 17:36:28;;;;;;;11.10;10.70;;;23.20;93.00;;;;;;5082185;28;20459;-71
2023/09/26 17:38:56;;;;;;;10.70;10.40;;;23.20;93.40;;;;;;5079168;28;20471;-71
2023/09/26 17:41:23;;;;;;;10.83;10.43;;;23.20;92.80;;;;;;5074668;28;20844;-66
2023/09/26 17:43:54;;;;;;;10.13;9.93;;;23.20;92.80;;;;;;5072649;28;21036;-69
2023/09/26 17:46:21;;;;;;;10.40;10.03;;;23.20;92.80;;;;;;5073269;28;20546;-70
2023/09/26 17:48:47;;;;;;;10.63;10.03;;;23.20;92.60;;;;;;5079417;28;21018;-70
2023/09/26 17:51:18;;;;;;;11.27;10.87;;;23.20;92.60;;;;;;5084079;28;20494;-71
2023/09/26 17:53:45;;;;;;;10.70;10.40;;;23.20;92.80;;;;;;5073173;28;20440;-70
2023/09/26 17:56:12;;;;;;;11.10;10.70;;;23.20;92.70;;;;;;5073887;28;20483;-71
2023/09/26 17:58:39;;;;;;;11.03;10.67;;;23.20;93.00;;;;;;5072784;28;20998;-71
2023/09/26 18:01:07;;;;;;;10.83;10.43;;;23.20;93.00;;;;;;5082049;28;20490;-68
2023/09/26 18:03:34;;;;;;;9.67;9.27;;;23.20;93.20;;;;;;5076300;28;20518;-66
2023/09/26 18:06:01;;;;;;;11.17;10.87;;;23.20;93.10;;;;;;5066038;28;20475;-66
2023/09/26 18:08:29;;;;;;;10.10;9.80;;;23.30;92.90;;;;;;5076806;28;20486;-66
2023/09/26 18:10:58;;;;;;;10.23;9.93;;;23.40;92.70;;;;;;5077102;28;20447;-66
2023/09/26 18:13:25;;;;;;;10.80;10.10;;;23.40;92.40;;;;;;5072721;28;20444;-65
2023/09/26 18:15:52;;;;;;;10.20;9.90;;;23.40;92.30;;;;;;5078704;28;20497;-66
2023/09/26 18:18:21;;;;;;;10.73;10.23;;;23.40;92.40;;;;;;5073371;28;20482;-66
2023/09/26 18:20:48;;;;;;;9.17;8.97;;;23.40;92.30;;;;;;5072677;28;20452;-66
2023/09/26 18:23:15;;;;;;;10.20;9.90;;;23.40;92.20;;;;;;5076705;28;20552;-67
2023/09/26 18:25:42;;;;;;;10.00;9.70;;;23.40;92.20;;;;;;5078889;28;20494;-67
2023/09/26 18:28:09;;;;;;;9.57;9.27;;;23.50;92.30;;;;;;5072798;28;20482;-66
2023/09/26 18:30:36;;;;;;;10.37;9.90;;;23.50;92.20;;;;;;5075813;28;20483;-65
2023/09/26 18:33:03;;;;;;;11.57;11.17;;;23.50;92.10;;;;;;5072361;28;20519;-66
2023/09/26 18:35:31;;;;;;;11.47;10.97;;;23.50;92.20;;;;;;5075183;28;20478;-65
2023/09/26 18:37:58;;;;;;;12.27;11.67;;;23.50;92.10;;;;;;5072383;28;20857;-72
2023/09/26 18:40:25;;;;;;;11.50;11.10;;;23.50;92.20;;;;;;5074666;28;20443;-70
2023/09/26 18:42:52;;;;;;;12.87;12.13;;;23.50;92.10;;;;;;5072802;28;20502;-69
2023/09/26 18:45:19;;;;;;;11.97;11.53;;;23.50;92.10;;;;;;5072138;28;20503;-71
2023/09/26 18:47:47;;;;;;;13.03;12.60;;;23.50;92.10;;;;;;5081229;28;20490;-74
2023/09/26 18:50:16;;;;;;;12.10;11.73;;;23.50;92.00;;;;;;5080183;28;20447;-73
2023/09/26 18:52:44;;;;;;;13.17;12.13;;;23.60;92.00;;;;;;5079899;28;20873;-74
2023/09/26 18:55:11;;;;;;;11.60;11.30;;;23.60;91.90;;;;;;5071735;28;20487;-74
2023/09/26 18:57:38;;;;;;;12.70;12.30;;;23.60;91.90;;;;;;5075459;28;20470;-73
2023/09/26 19:00:08;;;;;;;14.17;13.57;;;23.60;91.80;;;;;;5071782;28;20467;-72
2023/09/26 19:02:37;;;;;;;12.47;12.07;;;23.60;91.80;;;;;;5073219;28;20470;-72
2023/09/26 19:05:04;;;;;;;12.50;12.10;;;23.60;91.80;;;;;;5074938;28;20981;-71
2023/09/26 19:07:32;;;;;;;13.67;13.17;;;23.60;91.70;;;;;;5079789;28;20457;-72
2023/09/26 19:10:00;;;;;;;13.30;12.70;;;23.60;91.70;;;;;;5074235;28;20497;-70
2023/09/26 19:12:27;;;;;;;13.37;12.87;;;23.60;91.80;;;;;;5080940;28;20446;-69
2023/09/26 19:14:54;;;;;;;12.77;12.27;;;23.60;91.80;;;;;;5072415;28;20490;-70
2023/09/26 19:17:21;;;;;;;13.60;13.10;;;23.60;91.90;;;;;;5074375;28;20483;-71
2023/09/26 19:19:48;;;;;;;12.17;11.80;;;23.60;91.80;;;;;;5073157;28;20482;-72
2023/09/26 19:22:15;;;;;;;12.47;12.07;;;23.60;91.80;;;;;;5071788;28;20487;-70
2023/09/26 19:24:42;;;;;;;13.70;13.10;;;23.60;91.80;;;;;;5071182;28;20464;-68
2023/09/26 19:27:11;;;;;;;13.83;13.13;;;23.60;91.90;;;;;;5073564;28;20482;-68
2023/09/26 19:29:37;;;;;;;13.30;12.80;;;23.60;92.80;;;;;;5072875;28;20486;-72
2023/09/26 19:32:05;;;;;;;12.50;11.90;;;23.60;92.00;;;;;;5072426;28;20440;-70
2023/09/26 19:34:31;;;;;;;11.90;11.60;;;23.60;91.70;;;;;;5075517;28;20495;-70
2023/09/26 19:36:58;;;;;;;12.70;12.30;;;23.50;91.90;;;;;;5074821;28;20479;-70
2023/09/26 19:39:25;;;;;;;13.00;12.60;;;23.50;91.90;;;;;;5078110;28;20965;-71
2023/09/26 19:41:52;;;;;;;13.10;12.60;;;23.50;92.00;;;;;;5071014;28;20861;-70
2023/09/26 19:44:20;;;;;;;13.13;12.70;;;23.50;91.90;;;;;;5075310;28;20549;-72
2023/09/26 19:46:47;;;;;;;12.40;12.00;;;23.40;92.00;;;;;;5071352;28;20505;-70
2023/09/26 19:49:15;;;;;;;11.90;11.50;;;23.40;92.00;;;;;;5079483;28;20478;-69
2023/09/26 19:51:42;;;;;;;11.73;11.27;;;23.40;92.10;;;;;;5071150;28;21072;-76
2023/09/26 19:54:09;;;;;;;13.60;13.00;;;23.40;92.30;;;;;;5075435;28;20467;-75
2023/09/26 19:56:36;;;;;;;13.87;13.37;;;23.40;92.00;;;;;;5071269;28;20538;-74
2023/09/26 19:59:03;;;;;;;14.80;14.30;;;23.40;92.10;;;;;;5073366;28;20860;-73
2023/09/26 20:01:31;;;;;;;11.90;11.50;;;23.40;92.30;;;;;;5071228;28;20958;-72
2023/09/26 20:03:59;;;;;;;12.60;12.20;;;23.40;92.20;;;;;;5071034;28;20506;-72
2023/09/26 20:06:27;;;;;;;12.97;12.57;;;23.40;92.30;;;;;;5070873;28;20475;-73
2023/09/26 20:08:54;;;;;;;13.97;13.47;;;23.40;92.30;;;;;;5077767;28;20486;-72
2023/09/26 20:11:21;;;;;;;13.27;12.77;;;23.40;92.30;;;;;;5070938;28;20459;-73
2023/09/26 20:13:48;;;;;;;13.63;12.77;;;23.40;92.50;;;;;;5070643;28;20961;-74
2023/09/26 20:16:16;;;;;;;12.57;12.10;;;23.40;92.40;;;;;;5070925;28;20591;-73
2023/09/26 20:18:44;;;;;;;13.37;12.87;;;23.40;92.70;;;;;;5076947;28;20931;-73
2023/09/26 20:21:11;;;;;;;13.60;13.00;;;23.40;92.50;;;;;;5071053;28;20478;-73
2023/09/26 20:23:38;;;;;;;14.00;13.40;;;23.50;92.50;;;;;;5070939;28;20905;-71
2023/09/26 20:26:05;;;;;;;13.97;13.47;;;23.40;92.40;;;;;;5071283;28;20552;-71
2023/09/26 20:28:32;;;;;;;13.73;13.13;;;23.50;92.70;;;;;;5076600;28;20446;-72
2023/09/26 20:30:59;;;;;;;13.27;12.80;;;23.40;92.50;;;;;;5075338;28;20475;-70
2023/09/26 20:33:27;;;;;;;13.70;13.20;;;23.40;92.70;;;;;;5074646;28;20581;-74
2023/09/26 20:36:00;;;;;;;13.80;12.90;;;23.40;92.50;;;;;;5072745;28;20524;-73
2023/09/26 20:38:27;;;;;;;13.57;13.07;;;23.50;92.50;;;;;;5085576;28;20442;-72
2023/09/26 20:41:02;;;;;;;10.90;10.60;;;23.50;92.90;;;;;;5077111;28;20455;-70
2023/09/26 20:43:29;;;;;;;11.80;11.40;;;23.50;92.80;;;;;;5074758;28;20474;-73
2023/09/26 20:45:56;;;;;;;13.00;12.50;;;23.50;92.70;;;;;;5072923;28;20497;-72
2023/09/26 20:48:23;;;;;;;12.47;11.87;;;23.50;92.30;;;;;;5080110;28;20551;-70
2023/09/26 20:50:50;;;;;;;12.07;11.67;;;23.50;92.20;;;;;;5080706;28;20481;-70
2023/09/26 20:53:19;;;;;;;11.03;10.63;;;23.50;92.30;;;;;;5074578;28;20451;-69
2023/09/26 20:55:46;;;;;;;12.90;12.40;;;23.50;92.30;;;;;;5073843;28;20494;-69
2023/09/26 20:58:13;;;;;;;12.37;11.87;;;23.50;92.10;;;;;;5074796;28;20475;-70
2023/09/26 21:00:40;;;;;;;12.70;12.20;;;23.50;91.90;;;;;;5074441;28;20446;-70
2023/09/26 21:03:07;;;;;;;13.07;12.57;;;23.50;92.00;;;;;;5074359;28;20506;-70
2023/09/26 21:05:36;;;;;;;12.27;11.87;;;23.50;91.90;;;;;;5069901;28;21003;-70
2023/09/26 21:08:04;;;;;;;12.63;12.13;;;23.40;91.90;;;;;;5076652;28;20444;-69
2023/09/26 21:10:32;;;;;;;11.30;10.90;;;23.40;92.00;;;;;;5075013;28;20478;-69
2023/09/26 21:12:59;;;;;;;13.23;12.53;;;23.40;92.00;;;;;;5075795;28;20479;-70
2023/09/26 21:15:26;;;;;;;13.13;12.73;;;23.40;92.00;;;;;;5079227;28;20521;-70
2023/09/26 21:17:53;;;;;;;13.27;12.67;;;23.30;92.00;;;;;;5074479;28;20449;-69
2023/09/26 21:20:21;;;;;;;13.57;12.97;;;23.30;92.10;;;;;;5080180;28;20481;-70
2023/09/26 21:22:48;;;;;;;11.93;11.53;;;23.30;92.10;;;;;;5073459;28;20478;-70
2023/09/26 21:25:15;;;;;;;11.70;11.30;;;23.30;92.20;;;;;;5076712;28;20506;-69
2023/09/26 21:27:43;;;;;;;12.13;11.73;;;23.20;92.10;;;;;;5073635;28;20487;-70
2023/09/26 21:30:11;;;;;;;11.87;11.33;;;23.30;92.20;;;;;;5081104;28;20527;-69
2023/09/26 21:32:38;;;;;;;11.70;11.30;;;23.20;92.20;;;;;;5079128;28;20871;-69
2023/09/26 21:35:06;;;;;;;11.30;10.90;;;23.20;92.20;;;;;;5078797;28;20474;-70
2023/09/26 21:37:33;;;;;;;10.70;10.40;;;23.20;92.20;;;;;;5074520;28;20922;-69
2023/09/26 21:40:00;;;;;;;11.50;11.03;;;23.20;92.30;;;;;;5081508;28;20886;-69
2023/09/26 21:42:28;;;;;;;11.13;10.73;;;23.20;92.30;;;;;;5073375;28;20455;-69
2023/09/26 21:44:56;;;;;;;12.30;11.80;;;23.10;92.30;;;;;;5073107;28;20510;-69
2023/09/26 21:47:23;;;;;;;10.33;10.03;;;23.10;92.40;;;;;;5073517;28;20447;-69
2023/09/26 21:49:50;;;;;;;10.50;10.20;;;23.10;92.40;;;;;;5075558;28;20481;-68
2023/09/26 21:52:17;;;;;;;10.40;10.00;;;23.10;92.50;;;;;;5073358;28;20475;-68
2023/09/26 21:54:44;;;;;;;11.60;11.20;;;23.00;92.40;;;;;;5074806;28;20487;-68
2023/09/26 21:57:11;;;;;;;11.60;11.10;;;23.10;92.50;;;;;;5073315;28;20483;-68
2023/09/26 21:59:38;;;;;;;10.73;10.43;;;23.10;92.60;;;;;;5073201;28;20471;-68
2023/09/26 22:02:06;;;;;;;11.80;11.30;;;23.00;92.60;;;;;;5076623;28;20475;-68
2023/09/26 22:04:33;;;;;;;10.27;9.87;;;23.10;92.70;;;;;;5073671;28;20563;-68
2023/09/26 22:07:00;;;;;;;11.70;11.30;;;23.00;92.60;;;;;;5073298;28;20475;-68
2023/09/26 22:09:26;;;;;;;11.60;11.00;;;23.00;92.60;;;;;;5076604;28;20447;-69
2023/09/26 22:11:53;;;;;;;10.43;10.13;;;23.00;92.70;;;;;;5076734;28;20475;-68
2023/09/26 22:14:20;;;;;;;11.20;10.80;;;22.90;92.70;;;;;;5072383;28;20490;-68
2023/09/26 22:16:48;;;;;;;12.03;11.63;;;22.90;92.70;;;;;;5073777;28;20481;-68
2023/09/26 22:19:17;;;;;;;11.23;10.73;;;22.90;92.70;;;;;;5080262;28;20451;-68
2023/09/26 22:21:44;;;;;;;11.10;10.60;;;22.90;92.80;;;;;;5072644;28;20904;-68
2023/09/26 22:24:11;;;;;;;11.60;11.20;;;22.90;92.80;;;;;;5081295;28;20562;-68
2023/09/26 22:26:38;;;;;;;11.20;10.90;;;22.90;92.80;;;;;;5076854;28;20451;-68
2023/09/26 22:29:05;;;;;;;10.87;10.47;;;22.90;92.80;;;;;;5072569;28;20483;-67
2023/09/26 22:31:32;;;;;;;12.80;12.40;;;22.90;92.90;;;;;;5076367;28;20485;-68
2023/09/26 22:33:59;;;;;;;14.20;13.70;;;22.80;92.90;;;;;;5074654;28;20495;-68
2023/09/26 22:36:27;;;;;;;10.60;10.20;;;22.90;93.00;;;;;;5073641;28;20523;-68
2023/09/26 22:38:55;;;;;;;11.07;10.67;;;22.90;93.00;;;;;;5073941;28;20475;-69
2023/09/26 22:41:21;;;;;;;10.60;10.30;;;22.80;93.00;;;;;;5072160;28;20455;-68
2023/09/26 22:43:48;;;;;;;10.83;10.43;;;22.80;93.00;;;;;;5072259;28;20514;-68
2023/09/26 22:46:15;;;;;;;11.20;10.80;;;22.90;93.10;;;;;;5073585;28;20854;-69
2023/09/26 22:48:42;;;;;;;10.87;10.40;;;22.80;93.10;;;;;;5076019;28;20475;-69
2023/09/26 22:51:09;;;;;;;11.93;11.53;;;22.80;93.10;;;;;;5071550;28;20483;-68
2023/09/26 22:53:37;;;;;;;11.33;11.00;;;22.80;93.20;;;;;;5072157;28;20475;-69
2023/09/26 22:56:04;;;;;;;10.80;10.40;;;22.80;93.20;;;;;;5072105;28;20447;-69
2023/09/26 22:58:31;;;;;;;11.30;10.80;;;22.80;93.30;;;;;;5075580;28;20438;-69
2023/09/26 23:01:01;;;;;;;10.47;10.07;;;22.80;93.30;;;;;;5073547;28;20518;-68
2023/09/26 23:03:27;;;;;;;10.97;10.47;;;22.80;93.40;;;;;;5071832;28;20861;-68
2023/09/26 23:05:54;;;;;;;10.30;10.00;;;22.80;93.40;;;;;;5071656;28;20901;-68
2023/09/26 23:08:21;;;;;;;11.07;10.67;;;22.70;93.40;;;;;;5077793;28;20478;-69
2023/09/26 23:10:49;;;;;;;9.93;9.70;;;22.70;93.70;;;;;;5072559;28;20501;-69
2023/09/26 23:13:16;;;;;;;10.90;10.50;;;22.70;93.40;;;;;;5075531;28;20493;-69
2023/09/26 23:15:43;;;;;;;10.50;10.13;;;22.70;93.50;;;;;;5075279;28;20494;-69
2023/09/26 23:18:10;;;;;;;10.10;9.70;;;22.70;93.50;;;;;;5072440;28;20478;-69
2023/09/26 23:20:40;;;;;;;10.23;9.83;;;22.70;93.50;;;;;;5071703;28;20478;-69
2023/09/26 23:23:07;;;;;;;10.50;10.20;;;22.70;93.60;;;;;;5077214;28;20447;-69
2023/09/26 23:25:35;;;;;;;10.70;10.40;;;22.70;93.50;;;;;;5071228;28;20507;-69
2023/09/26 23:28:05;;;;;;;10.60;10.03;;;22.70;93.60;;;;;;5071627;28;20475;-69
2023/09/26 23:30:32;;;;;;;10.63;10.33;;;22.70;94.00;;;;;;5071693;28;20454;-69
2023/09/26 23:33:00;;;;;;;11.00;10.50;;;22.70;93.70;;;;;;5071784;28;20487;-68
2023/09/26 23:35:27;;;;;;;10.90;10.40;;;22.60;93.60;;;;;;5072204;28;20487;-69
2023/09/26 23:37:54;;;;;;;10.87;10.37;;;22.70;93.70;;;;;;5072530;28;20479;-68
2023/09/26 23:40:22;;;;;;;10.57;10.27;;;22.60;93.70;;;;;;5075867;28;20526;-69
2023/09/26 23:42:49;;;;;;;10.40;10.00;;;22.60;93.70;;;;;;5071541;28;20815;-68
2023/09/26 23:45:19;;;;;;;11.23;10.63;;;22.60;93.70;;;;;;5071306;28;20487;-69
2023/09/26 23:47:46;;;;;;;10.50;10.10;;;22.60;93.80;;;;;;5075318;28;20450;-68
2023/09/26 23:50:14;;;;;;;10.83;10.43;;;22.60;93.80;;;;;;5072584;28;20486;-69
2023/09/26 23:52:43;;;;;;;11.33;10.87;;;22.60;93.80;;;;;;5070689;28;20451;-69
2023/09/26 23:55:10;;;;;;;10.30;10.00;;;22.60;93.90;;;;;;5070176;28;20463;-69
2023/09/26 23:57:38;;;;;;;10.93;10.63;;;22.60;93.90;;;;;;5074271;28;20474;-69
